createdAt,value
2019-05-09T15:02:57.995Z,315.00
2019-05-09T15:03:58.336Z,321.05
2019-05-09T15:04:55.770Z,121.80
2019-05-09T15:05:57.361Z,80.02
2019-05-09T15:06:57.865Z,299.91
2019-05-09T15:07:58.905Z,91.55
2019-05-09T15:08:57.935Z,98.38
2019-05-09T15:09:56.903Z,171.88
2019-05-09T15:10:58.049Z,274.81
2019-05-09T15:11:58.278Z,294.00
2019-05-09T15:12:55.730Z,270.00
2019-05-09T15:13:55.697Z,270.00
2019-05-09T15:14:57.818Z,267.16
2019-05-09T15:15:57.900Z,49.90
2019-05-09T15:16:57.497Z,304.59
2019-05-09T15:17:58.236Z,306.59
2019-05-09T15:18:58.189Z,298.09
2019-05-09T15:20:00.225Z,315.73
2019-05-09T15:20:57.981Z,273.53
2019-05-09T15:21:57.814Z,289.87
2019-05-09T15:22:55.760Z,277.13
2019-05-09T15:23:55.741Z,273.04
2019-05-09T15:24:55.726Z,315.00
2019-05-09T15:25:58.037Z,297.82
2019-05-09T15:26:57.821Z,315.00
2019-05-09T15:27:58.031Z,315.00
2019-05-09T15:28:57.829Z,306.68
2019-05-09T15:29:58.288Z,355.96
2019-05-09T15:30:55.749Z,294.04
2019-05-09T15:32:03.329Z,333.90
2019-05-09T15:32:55.785Z,281.11
2019-05-09T15:33:55.773Z,235.67
2019-05-09T15:34:57.707Z,90.47
2019-05-09T15:35:55.748Z,90.00
2019-05-09T15:36:58.031Z,82.87
2019-05-09T15:37:55.766Z,305.73
2019-05-09T15:38:55.798Z,252.61
2019-05-09T15:39:55.734Z,311.72
2019-05-09T15:40:55.761Z,286.34
2019-05-09T15:41:57.798Z,326.96
2019-05-09T15:42:55.757Z,57.01
2019-05-09T15:43:57.890Z,103.54
2019-05-09T15:44:58.782Z,90.00
2019-05-09T15:45:57.958Z,67.49
2019-05-09T15:46:55.756Z,297.50
2019-05-09T15:47:58.173Z,270.00
2019-05-09T15:48:58.132Z,284.46
2019-05-09T15:49:57.955Z,19.72
2019-05-09T15:50:58.111Z,282.04
2019-05-09T15:51:58.326Z,90.00
2019-05-09T15:52:57.997Z,89.77
2019-05-09T15:53:57.736Z,289.41
2019-05-09T15:54:57.917Z,285.02
2019-05-09T15:55:55.767Z,302.44
2019-05-09T15:56:57.851Z,302.54
2019-05-09T15:57:57.690Z,279.81
2019-05-09T15:58:57.928Z,274.66
2019-05-09T15:59:58.619Z,269.03
2019-05-09T16:00:55.772Z,280.44
2019-05-09T16:01:58.183Z,272.08
2019-05-09T16:02:58.760Z,273.02
2019-05-09T16:03:55.762Z,270.00
2019-05-09T16:04:58.237Z,277.19
2019-05-09T16:05:58.249Z,313.65
2019-05-09T16:06:55.802Z,302.48
2019-05-09T16:07:55.787Z,309.21
2019-05-09T16:08:58.400Z,315.00
2019-05-09T16:09:57.822Z,299.36
2019-05-09T16:10:58.010Z,293.17
2019-05-09T16:11:55.775Z,268.30
2019-05-09T16:12:55.809Z,180.39
2019-05-09T16:13:55.792Z,108.99
2019-05-09T16:14:55.849Z,85.07
2019-05-09T16:15:57.548Z,300.38
2019-05-09T16:16:55.792Z,276.56
2019-05-09T16:17:55.826Z,331.17
2019-05-09T16:18:58.073Z,32.18
2019-05-09T16:19:57.723Z,290.14
2019-05-09T16:20:57.947Z,327.21
2019-05-09T16:21:55.820Z,294.06
2019-05-09T16:22:57.274Z,87.48
2019-05-09T16:23:55.799Z,315.00
2019-05-09T16:24:55.826Z,325.05
2019-05-09T16:25:58.365Z,94.41
2019-05-09T16:26:57.826Z,279.58
2019-05-09T16:27:58.569Z,275.16
2019-05-09T16:28:58.092Z,278.73
2019-05-09T16:29:57.988Z,316.91
2019-05-09T16:30:55.829Z,313.31
2019-05-09T16:31:57.917Z,279.39
2019-05-09T16:32:55.852Z,309.19
2019-05-09T16:33:58.046Z,271.63
2019-05-09T16:34:55.818Z,299.85
2019-05-09T16:35:55.869Z,323.09
2019-05-09T16:36:58.227Z,352.61
2019-05-09T16:38:01.442Z,273.28
2019-05-09T16:38:58.192Z,270.00
2019-05-09T16:39:57.722Z,297.34
2019-05-09T16:40:58.134Z,277.39
2019-05-09T16:41:59.011Z,273.64
2019-05-09T16:42:58.116Z,207.20
2019-05-09T16:43:58.153Z,96.01
2019-05-09T16:44:59.155Z,270.00
2019-05-09T16:45:57.994Z,15.11
2019-05-09T16:46:57.629Z,284.25
2019-05-09T16:47:57.552Z,165.88
2019-05-09T16:48:57.964Z,180.00
2019-05-09T16:49:57.907Z,131.42
2019-05-09T16:51:01.305Z,190.67
2019-05-09T16:51:58.058Z,278.55
2019-05-09T16:52:58.427Z,270.00
2019-05-09T16:53:58.252Z,270.00
2019-05-09T16:54:58.030Z,299.85
2019-05-09T16:55:57.821Z,315.00
2019-05-09T16:56:57.373Z,65.35
2019-05-09T16:57:57.369Z,45.00
2019-05-09T16:58:57.807Z,45.00
2019-05-09T16:59:55.879Z,45.00
2019-05-09T17:00:55.880Z,45.00
2019-05-09T17:01:57.866Z,65.83
2019-05-09T17:02:57.453Z,90.00
2019-05-09T17:03:57.529Z,90.00
2019-05-09T17:04:57.740Z,117.95
2019-05-09T17:05:58.077Z,135.00
2019-05-09T17:06:57.701Z,135.00
2019-05-09T17:07:55.865Z,94.61
2019-05-09T17:08:58.201Z,90.00
2019-05-09T17:09:57.751Z,90.00
2019-05-09T17:10:58.410Z,126.12
2019-05-09T17:11:57.718Z,98.82
2019-05-09T17:12:58.088Z,135.00
2019-05-09T17:13:58.172Z,135.00
2019-05-09T17:14:59.488Z,168.18
2019-05-09T17:15:55.914Z,180.00
2019-05-09T17:16:59.700Z,180.00
2019-05-09T17:17:55.911Z,180.00
2019-05-09T17:18:58.001Z,180.00
2019-05-09T17:19:57.306Z,177.08
2019-05-09T17:20:58.637Z,57.23
2019-05-09T17:21:55.873Z,106.15
2019-05-09T17:23:10.005Z,180.00
2019-05-09T17:23:58.209Z,180.00
2019-05-09T17:24:57.430Z,180.00
2019-05-09T17:25:57.880Z,180.00
2019-05-09T17:26:57.968Z,180.00
2019-05-09T17:27:59.024Z,180.00
2019-05-09T17:28:55.870Z,138.26
2019-05-09T17:29:55.908Z,135.00
2019-05-09T17:30:57.943Z,135.00
2019-05-09T17:31:58.203Z,135.00
2019-05-09T17:32:58.127Z,135.00
2019-05-09T17:33:57.912Z,135.00
2019-05-09T17:34:58.168Z,135.00
2019-05-09T17:35:57.760Z,135.00
2019-05-09T17:36:55.921Z,135.00
2019-05-09T17:37:55.907Z,135.00
2019-05-09T17:38:55.919Z,135.00
2019-05-09T17:39:55.900Z,135.00
2019-05-09T17:40:57.738Z,135.00
2019-05-09T17:41:58.063Z,135.00
2019-05-09T17:42:55.962Z,135.00
2019-05-09T17:43:58.069Z,135.00
2019-05-09T17:44:57.899Z,135.00
2019-05-09T17:45:58.098Z,135.00
2019-05-09T17:46:57.954Z,135.00
2019-05-09T17:47:57.806Z,135.00
2019-05-09T17:48:58.121Z,135.00
2019-05-09T17:49:57.410Z,135.00
2019-05-09T17:50:57.925Z,135.00
2019-05-09T17:51:58.206Z,135.00
2019-05-09T17:52:57.821Z,135.00
2019-05-09T17:53:58.182Z,135.00
2019-05-09T17:54:55.965Z,135.00
2019-05-09T17:55:58.364Z,135.00
2019-05-09T17:56:57.303Z,148.80
2019-05-09T17:57:58.499Z,180.00
2019-05-09T17:58:57.899Z,180.00
2019-05-09T17:59:58.320Z,180.00
2019-05-09T18:00:57.696Z,180.00
2019-05-09T18:01:57.799Z,180.00
2019-05-09T18:02:57.865Z,180.00
2019-05-09T18:03:55.974Z,180.00
2019-05-09T18:04:58.124Z,180.00
2019-05-09T18:05:57.688Z,180.00
2019-05-09T18:06:58.220Z,180.00
2019-05-09T18:07:57.920Z,180.00
2019-05-09T18:08:57.607Z,180.00
2019-05-09T18:09:58.082Z,180.00
2019-05-09T18:10:58.349Z,180.00
2019-05-09T18:11:57.841Z,180.00
2019-05-09T18:12:55.985Z,226.29
2019-05-09T18:13:55.953Z,315.00
2019-05-09T18:14:56.033Z,315.00
2019-05-09T18:15:56.017Z,322.42
2019-05-09T18:16:58.180Z,112.23
2019-05-09T18:17:58.458Z,73.02
2019-05-09T18:18:58.535Z,5.35
2019-05-09T18:19:58.285Z,28.14
2019-05-09T18:20:58.032Z,0.00
2019-05-09T18:21:57.703Z,0.00
2019-05-09T18:22:58.447Z,0.00
2019-05-09T18:23:58.509Z,0.00
2019-05-09T18:24:57.712Z,0.00
2019-05-09T18:25:58.315Z,332.07
2019-05-09T18:26:58.219Z,270.00
2019-05-09T18:27:57.464Z,15.14
2019-05-09T18:28:59.425Z,90.00
2019-05-09T18:29:58.115Z,90.00
2019-05-09T18:30:58.355Z,88.15
2019-05-09T18:31:58.229Z,353.37
2019-05-09T18:32:57.882Z,355.51
2019-05-09T18:33:58.121Z,354.65
2019-05-09T18:34:58.399Z,295.79
2019-05-09T18:35:57.627Z,336.84
2019-05-09T18:36:58.605Z,316.36
2019-05-09T18:37:56.062Z,358.28
2019-05-09T18:38:58.249Z,315.00
2019-05-09T18:39:58.089Z,357.42
2019-05-09T18:40:57.939Z,0.00
2019-05-09T18:41:57.735Z,355.01
2019-05-09T18:42:58.231Z,270.00
2019-05-09T18:43:57.426Z,277.67
2019-05-09T18:44:56.078Z,315.00
2019-05-09T18:45:57.729Z,293.31
2019-05-09T18:46:57.670Z,270.00
2019-05-09T18:47:57.992Z,270.00
2019-05-09T18:48:56.115Z,270.00
2019-05-09T18:49:56.086Z,270.00
2019-05-09T18:50:56.137Z,270.00
2019-05-09T18:52:03.842Z,270.00
2019-05-09T18:52:56.137Z,270.00
2019-05-09T18:53:56.174Z,270.00
2019-05-09T18:54:56.129Z,313.94
2019-05-09T18:55:56.109Z,315.00
2019-05-09T18:56:56.175Z,315.00
2019-05-09T18:57:56.147Z,315.00
2019-05-09T18:58:56.124Z,314.87
2019-05-09T18:59:56.182Z,167.70
2019-05-09T19:00:56.155Z,135.00
2019-05-09T19:01:56.141Z,135.00
2019-05-09T19:02:56.181Z,135.00
2019-05-09T19:03:56.159Z,135.00
2019-05-09T19:04:56.140Z,135.00
2019-05-09T19:05:56.205Z,135.00
2019-05-09T19:06:56.149Z,135.00
2019-05-09T19:07:56.137Z,135.00
2019-05-09T19:08:56.165Z,135.00
2019-05-09T19:09:56.165Z,135.00
2019-05-09T19:10:56.143Z,135.00
2019-05-09T19:11:56.192Z,135.00
2019-05-09T19:12:56.135Z,135.00
2019-05-09T19:13:56.168Z,135.00
2019-05-09T19:14:56.177Z,135.00
2019-05-09T19:15:58.448Z,135.00
2019-05-09T19:16:56.134Z,135.00
2019-05-09T19:17:56.198Z,135.00
2019-05-09T19:18:56.154Z,135.00
2019-05-09T19:19:56.134Z,135.00
2019-05-09T19:20:56.169Z,135.00
2019-05-09T19:21:56.164Z,135.00
2019-05-09T19:22:56.145Z,135.00
2019-05-09T19:23:56.204Z,135.00
2019-05-09T19:24:56.163Z,135.00
2019-05-09T19:25:56.173Z,135.00
2019-05-09T19:26:56.221Z,135.00
2019-05-09T19:27:56.230Z,135.00
2019-05-09T19:28:56.239Z,135.00
2019-05-09T19:29:56.278Z,135.00
2019-05-09T19:30:56.251Z,268.86
2019-05-09T19:31:56.234Z,272.31
2019-05-09T19:32:56.296Z,314.46
2019-05-09T19:33:56.317Z,288.16
2019-05-09T19:34:56.338Z,288.70
2019-05-09T19:35:56.339Z,253.11
2019-05-09T19:36:56.326Z,257.49
2019-05-09T19:37:56.328Z,313.30
2019-05-09T19:38:56.358Z,315.00
2019-05-09T19:39:56.350Z,315.00
2019-05-09T19:40:56.387Z,304.17
2019-05-09T19:41:56.423Z,274.88
2019-05-09T19:42:56.399Z,272.94
2019-05-09T19:43:56.374Z,254.53
2019-05-09T19:44:56.419Z,262.79
2019-05-09T19:45:56.409Z,314.89
2019-05-09T19:46:56.447Z,317.60
2019-05-09T19:47:56.487Z,309.62
2019-05-09T19:48:56.458Z,286.28
2019-05-09T19:49:56.447Z,286.40
2019-05-09T19:50:56.544Z,315.00
2019-05-09T19:51:56.487Z,296.45
2019-05-09T19:52:56.515Z,266.82
2019-05-09T19:53:56.558Z,153.94
2019-05-09T19:54:56.514Z,135.00
2019-05-09T19:55:56.520Z,135.00
2019-05-09T19:56:56.559Z,135.00
2019-05-09T19:57:56.568Z,216.86
2019-05-09T19:58:56.566Z,270.00
2019-05-09T19:59:56.618Z,270.00
2019-05-09T20:00:56.602Z,286.55
2019-05-09T20:01:56.626Z,279.73
2019-05-09T20:02:56.659Z,277.31
2019-05-09T20:03:56.641Z,282.34
2019-05-09T20:04:56.671Z,227.07
2019-05-09T20:05:56.673Z,225.00
2019-05-09T20:06:56.654Z,225.00
2019-05-09T20:07:56.710Z,269.50
2019-05-09T20:08:56.700Z,261.51
2019-05-09T20:09:56.716Z,243.21
2019-05-09T20:10:56.766Z,271.23
2019-05-09T20:11:56.771Z,288.86
2019-05-09T20:12:56.713Z,274.18
2019-05-09T20:13:56.766Z,270.00
2019-05-09T20:14:56.820Z,270.00
2019-05-09T20:15:56.749Z,233.25
2019-05-09T20:16:56.769Z,248.21
2019-05-09T20:17:56.845Z,270.00
2019-05-09T20:18:56.798Z,270.00
2019-05-09T20:19:56.782Z,270.00
2019-05-09T20:20:56.860Z,270.00
2019-05-09T20:21:56.849Z,270.00
2019-05-09T20:22:56.874Z,270.00
2019-05-09T20:23:57.985Z,239.16
2019-05-09T20:24:56.894Z,225.00
2019-05-09T20:25:56.890Z,230.86
2019-05-09T20:26:56.914Z,246.65
2019-05-09T20:27:56.919Z,271.25
2019-05-09T20:28:56.945Z,276.87
2019-05-09T20:29:56.942Z,278.76
2019-05-09T20:30:56.953Z,273.95
2019-05-09T20:31:56.991Z,270.54
2019-05-09T20:32:56.990Z,190.61
2019-05-09T20:33:56.994Z,135.00
2019-05-09T20:34:56.983Z,135.00
2019-05-09T20:35:57.036Z,135.00
2019-05-09T20:36:57.007Z,135.00
2019-05-09T20:37:57.039Z,135.00
2019-05-09T20:38:57.048Z,135.00
2019-05-09T20:39:57.068Z,135.00
2019-05-09T20:40:57.091Z,135.00
2019-05-09T20:41:57.088Z,135.00
2019-05-09T20:42:57.070Z,135.00
2019-05-09T20:43:57.131Z,135.00
2019-05-09T20:44:57.117Z,135.00
2019-05-09T20:45:57.139Z,135.00
2019-05-09T20:46:57.163Z,135.00
2019-05-09T20:47:57.175Z,135.00
2019-05-09T20:48:57.174Z,135.00
2019-05-09T20:49:57.195Z,135.00
2019-05-09T20:50:57.164Z,135.00
2019-05-09T20:51:57.247Z,135.00
2019-05-09T20:53:08.976Z,135.00
2019-05-09T20:53:57.240Z,135.00
2019-05-09T20:54:57.220Z,135.00
2019-05-09T20:55:57.238Z,135.00
2019-05-09T20:56:57.236Z,135.00
2019-05-09T20:57:57.226Z,135.00
2019-05-09T20:58:57.241Z,135.00
2019-05-09T20:59:57.244Z,135.00
2019-05-09T21:00:57.227Z,135.00
2019-05-09T21:01:57.226Z,135.00
2019-05-09T21:02:57.202Z,135.00
2019-05-09T21:04:00.047Z,135.00
2019-05-09T21:04:57.244Z,135.00
2019-05-09T21:05:57.236Z,135.00
2019-05-09T21:06:57.248Z,135.00
2019-05-09T21:07:57.200Z,135.00
2019-05-09T21:08:57.227Z,135.00
2019-05-09T21:09:57.259Z,135.00
2019-05-09T21:10:57.276Z,135.00
2019-05-09T21:11:57.235Z,135.00
2019-05-09T21:12:57.241Z,135.00
2019-05-09T21:13:57.198Z,135.00
2019-05-09T21:14:57.235Z,135.00
2019-05-09T21:15:57.241Z,135.00
2019-05-09T21:16:57.246Z,135.00
2019-05-09T21:17:57.245Z,135.00
2019-05-09T21:18:57.222Z,135.00
2019-05-09T21:19:57.209Z,135.00
2019-05-09T21:20:57.250Z,135.00
2019-05-09T21:21:57.273Z,135.00
2019-05-09T21:22:57.302Z,138.96
2019-05-09T21:23:57.229Z,270.00
2019-05-09T21:24:57.254Z,270.00
2019-05-09T21:25:57.260Z,270.00
2019-05-09T21:26:57.268Z,270.00
2019-05-09T21:27:57.304Z,270.00
2019-05-09T21:28:57.238Z,270.00
2019-05-09T21:29:57.268Z,270.00
2019-05-09T21:30:57.225Z,270.00
2019-05-09T21:31:57.206Z,270.00
2019-05-09T21:32:57.247Z,186.26
2019-05-09T21:33:57.257Z,135.00
2019-05-09T21:34:57.241Z,135.00
2019-05-09T21:35:57.248Z,135.00
2019-05-09T21:36:57.263Z,135.00
2019-05-09T21:37:57.290Z,135.00
2019-05-09T21:38:57.267Z,135.00
2019-05-09T21:39:57.271Z,135.00
2019-05-09T21:40:57.283Z,135.00
2019-05-09T21:41:57.265Z,135.00
2019-05-09T21:42:57.245Z,135.00
2019-05-09T21:43:57.253Z,135.00
2019-05-09T21:44:57.269Z,135.00
2019-05-09T21:45:57.251Z,135.00
2019-05-09T21:46:57.242Z,135.00
2019-05-09T21:47:57.283Z,135.00
2019-05-09T21:48:57.282Z,157.73
2019-05-09T21:49:57.296Z,180.00
2019-05-09T21:50:57.262Z,180.00
2019-05-09T21:51:57.255Z,180.00
2019-05-09T21:52:57.254Z,180.00
2019-05-09T21:53:57.269Z,180.00
2019-05-09T21:54:57.276Z,136.30
2019-05-09T21:55:57.275Z,135.00
2019-05-09T21:56:57.320Z,135.00
2019-05-09T21:57:57.250Z,135.00
2019-05-09T21:58:57.248Z,135.00
2019-05-09T21:59:57.284Z,135.00
2019-05-09T22:00:57.287Z,135.00
2019-05-09T22:01:57.310Z,135.00
2019-05-09T22:02:57.297Z,135.00
2019-05-09T22:03:57.282Z,135.00
2019-05-09T22:04:57.273Z,135.00
2019-05-09T22:05:57.282Z,135.00
2019-05-09T22:06:57.267Z,135.00
2019-05-09T22:07:57.272Z,110.56
2019-05-09T22:08:57.305Z,90.00
2019-05-09T22:09:57.267Z,119.74
2019-05-09T22:10:57.294Z,129.19
2019-05-09T22:11:57.286Z,90.00
2019-05-09T22:12:57.279Z,90.00
2019-05-09T22:13:57.294Z,90.00
2019-05-09T22:14:57.287Z,90.00
2019-05-09T22:15:57.283Z,90.00
2019-05-09T22:16:57.272Z,90.00
2019-05-09T22:17:57.290Z,90.00
2019-05-09T22:18:57.280Z,90.00
2019-05-09T22:19:57.253Z,90.00
2019-05-09T22:20:57.278Z,132.07
2019-05-09T22:21:57.269Z,101.18
2019-05-09T22:22:57.268Z,90.00
2019-05-09T22:23:57.389Z,131.22
2019-05-09T22:24:57.268Z,225.00
2019-05-09T22:25:57.251Z,225.00
2019-05-09T22:26:57.286Z,297.03
2019-05-09T22:27:57.290Z,0.00
2019-05-09T22:28:57.330Z,0.00
2019-05-09T22:29:57.281Z,0.00
2019-05-09T22:30:57.301Z,0.00
2019-05-09T22:31:57.309Z,0.00
2019-05-09T22:32:57.273Z,0.00
2019-05-09T22:33:57.290Z,0.00
2019-05-09T22:34:57.342Z,0.00
2019-05-09T22:35:57.332Z,0.00
2019-05-09T22:36:57.275Z,0.00
2019-05-09T22:37:57.320Z,0.00
2019-05-09T22:38:57.297Z,0.00
2019-05-09T22:39:57.316Z,0.00
2019-05-09T22:40:57.336Z,2.65
2019-05-09T22:41:57.310Z,135.00
2019-05-09T22:42:57.284Z,135.00
2019-05-09T22:43:57.269Z,135.00
2019-05-09T22:44:57.321Z,135.00
2019-05-09T22:45:57.295Z,135.00
2019-05-09T22:46:57.294Z,135.00
2019-05-09T22:47:57.315Z,135.00
2019-05-09T22:48:57.309Z,135.00
2019-05-09T22:49:57.306Z,135.00
2019-05-09T22:50:57.325Z,135.00
2019-05-09T22:51:57.297Z,135.00
2019-05-09T22:52:57.338Z,135.00
2019-05-09T22:54:11.738Z,135.00
2019-05-09T22:54:57.310Z,135.00
2019-05-09T22:55:57.283Z,135.00
2019-05-09T22:56:57.314Z,135.00
2019-05-09T22:57:57.309Z,135.00
2019-05-09T22:58:57.291Z,135.00
2019-05-09T22:59:57.355Z,135.00
2019-05-09T23:00:57.321Z,135.00
2019-05-09T23:01:57.293Z,135.00
2019-05-09T23:02:57.314Z,135.00
2019-05-09T23:03:57.314Z,135.00
2019-05-09T23:04:57.301Z,135.00
2019-05-09T23:05:57.330Z,136.45
2019-05-09T23:06:57.305Z,225.00
2019-05-09T23:07:57.290Z,225.00
2019-05-09T23:08:57.327Z,225.00
2019-05-09T23:09:57.314Z,225.00
2019-05-09T23:10:57.311Z,267.47
2019-05-09T23:11:57.334Z,315.00
2019-05-09T23:12:57.330Z,135.00
2019-05-09T23:13:57.342Z,135.00
2019-05-09T23:14:57.342Z,135.00
2019-05-09T23:15:57.313Z,135.00
2019-05-09T23:16:57.321Z,135.00
2019-05-09T23:17:57.339Z,135.00
2019-05-09T23:18:57.283Z,135.00
2019-05-09T23:19:57.323Z,104.09
2019-05-09T23:20:57.323Z,343.19
2019-05-09T23:21:57.324Z,228.87
2019-05-09T23:22:57.310Z,225.00
2019-05-09T23:23:57.329Z,225.00
2019-05-09T23:24:57.306Z,255.45
2019-05-09T23:25:57.314Z,270.00
2019-05-09T23:26:57.331Z,270.00
2019-05-09T23:27:57.339Z,270.00
2019-05-09T23:28:57.334Z,270.00
2019-05-09T23:29:57.324Z,270.00
2019-05-09T23:30:57.325Z,270.00
2019-05-09T23:31:57.373Z,175.88
2019-05-09T23:32:57.345Z,135.00
2019-05-09T23:33:57.323Z,135.00
2019-05-09T23:34:57.331Z,135.00
2019-05-09T23:35:57.346Z,135.00
2019-05-09T23:36:57.328Z,135.00
2019-05-09T23:37:57.312Z,135.00
2019-05-09T23:38:57.344Z,135.00
2019-05-09T23:39:57.351Z,135.00
2019-05-09T23:40:57.329Z,135.00
2019-05-09T23:41:57.336Z,135.00
2019-05-09T23:42:57.339Z,135.00
2019-05-09T23:43:57.311Z,135.00
2019-05-09T23:44:57.355Z,135.00
2019-05-09T23:45:57.357Z,135.00
2019-05-09T23:46:57.332Z,135.00
2019-05-09T23:47:57.349Z,135.00
2019-05-09T23:48:57.348Z,135.00
2019-05-09T23:49:57.318Z,135.00
2019-05-09T23:50:57.355Z,135.00
2019-05-09T23:51:57.341Z,135.00
2019-05-09T23:52:57.352Z,135.00
2019-05-09T23:53:57.349Z,135.00
2019-05-09T23:54:57.360Z,135.00
2019-05-09T23:55:57.387Z,135.00
2019-05-09T23:56:57.367Z,135.00
2019-05-09T23:57:57.337Z,135.00
2019-05-09T23:58:57.401Z,135.00
2019-05-09T23:59:57.379Z,135.00
